Show newer

彼はこの曲がり方が好きでもう5年も使ってるんですねぇ

@nelsoncoffeeroaster 豆きたー
そろそろヤマトに怒られる詰め込み具合w

今年から残業という概念がなくなったならなぁ...

思ったより早かった
緊急事態宣言明けたらスタートダッシュだなw

RICOH GR IIIxの発売日が10月1日に決定。外付けファインダーも同時発売 - デジカメ Watch dc.watch.impress.co.jp/docs/ne

多分品薄だろうからスピード命で

なんで懐かしがるかなマスクさんw

ドローンなんかが対象の「小型無人機等飛行禁止法」が指定している「飛行禁止場所」は別の話です

飛行制限空域は先程もいいましたが、現在3箇所
RJR1: 米軍車力通信所周辺(青森)
RJR2: 福島第1原子力発電所周辺
RJR3: 米軍経ヶ岬通信所周辺(京都)

ここは一定の条件下での飛行を禁止されている所です。事前に許可申請する余地はあります。

ややこしいんですよね
いわゆる航空法で言う「飛行禁止空域」は現在日本にはありません。
一時期福島第一発電所付近に指定されていたことはありますが、現在は解除されています

報道でよく間違って伝えられる事
・日本に飛行禁止区域はありません
・日本にあるのは飛行制限区域。
 現在3箇所

TDLのシンデレラ城は58m

なお、前にも言いましたが羽田D滑走路ほぼ正面に立ってる東京ディズニーシーで最も高い建物であるタワーオブテラーはそのせいもあって59mですw

高さ60m以上の大仏には航空標識の設置が義務付けられています

8時起きはブルジョワ

ゆ・れ・て湘南 (震源は東海)

伊丹20℃
涼しくなってきたな

RJOO 132100Z 32003KT 9999 -RA FEW025 SCT080 OVC130 20/20 Q1018 RMK 1CU025 4AC080 8AS130 A3007

Show older
hikoukidon

個人運用サーバです。 Private server.